sensor_id;sensor_type;location;lat;lon;timestamp;pressure;altitude;pressure_sealevel;temperature;humidity
596;BME280;19946;49.306;11.350;2022-10-15T00:02:54;95798.91;;;11.70;100.00
596;BME280;19946;49.306;11.350;2022-10-15T00:05:54;95805.72;;;11.71;100.00
596;BME280;19946;49.306;11.350;2022-10-15T00:08:55;95811.88;;;11.70;100.00
596;BME280;19946;49.306;11.350;2022-10-15T00:11:55;95806.06;;;11.68;100.00
596;BME280;19946;49.306;11.350;2022-10-15T00:14:55;95798.09;;;11.69;100.00
596;BME280;19946;49.306;11.350;2022-10-15T00:17:56;95795.06;;;11.74;100.00
596;BME280;19946;49.306;11.350;2022-10-15T00:20:57;95795.75;;;11.76;100.00
596;BME280;19946;49.306;11.350;2022-10-15T00:23:57;95799.16;;;11.77;100.00
596;BME280;19946;49.306;11.350;2022-10-15T00:26:58;95791.25;;;11.78;100.00
596;BME280;19946;49.306;11.350;2022-10-15T00:29:58;95785.50;;;11.75;100.00
596;BME280;19946;49.306;11.350;2022-10-15T00:33:00;95787.84;;;11.78;100.00
596;BME280;19946;49.306;11.350;2022-10-15T00:36:09;95787.66;;;11.79;100.00
596;BME280;19946;49.306;11.350;2022-10-15T00:39:11;95782.31;;;11.81;100.00
596;BME280;19946;49.306;11.350;2022-10-15T00:42:12;95778.75;;;11.82;100.00
596;BME280;19946;49.306;11.350;2022-10-15T00:45:14;95777.78;;;11.83;100.00
596;BME280;19946;49.306;11.350;2022-10-15T00:48:14;95779.72;;;11.81;100.00
596;BME280;19946;49.306;11.350;2022-10-15T00:51:16;95775.19;;;11.83;100.00
596;BME280;19946;49.306;11.350;2022-10-15T00:54:19;95767.13;;;11.86;100.00
596;BME280;19946;49.306;11.350;2022-10-15T00:57:20;95767.13;;;11.86;100.00
596;BME280;19946;49.306;11.350;2022-10-15T01:00:22;95756.59;;;11.87;100.00
596;BME280;19946;49.306;11.350;2022-10-15T01:03:22;95745.69;;;11.84;100.00
596;BME280;19946;49.306;11.350;2022-10-15T01:06:23;95750.06;;;11.83;100.00
596;BME280;19946;49.306;11.350;2022-10-15T01:09:25;95746.34;;;11.86;100.00
596;BME280;19946;49.306;11.350;2022-10-15T01:21:51;95735.16;;;11.85;100.00
596;BME280;19946;49.306;11.350;2022-10-15T01:32:01;95724.78;;;11.85;100.00
596;BME280;19946;49.306;11.350;2022-10-15T01:35:53;95722.19;;;11.85;100.00
596;BME280;19946;49.306;11.350;2022-10-15T01:38:35;95717.16;;;11.84;100.00
596;BME280;19946;49.306;11.350;2022-10-15T01:41:47;95712.78;;;11.84;100.00
596;BME280;19946;49.306;11.350;2022-10-15T01:44:54;95710.19;;;11.84;100.00
596;BME280;19946;49.306;11.350;2022-10-15T01:48:20;95698.84;;;11.85;100.00
596;BME280;19946;49.306;11.350;2022-10-15T01:51:23;95698.50;;;11.80;100.00
596;BME280;19946;49.306;11.350;2022-10-15T01:54:26;95702.56;;;11.83;100.00
596;BME280;19946;49.306;11.350;2022-10-15T01:57:29;95691.38;;;11.82;100.00
596;BME280;19946;49.306;11.350;2022-10-15T02:00:31;95683.75;;;11.81;100.00
596;BME280;19946;49.306;11.350;2022-10-15T02:03:46;95690.91;;;11.87;100.00
596;BME280;19946;49.306;11.350;2022-10-15T02:10:26;95697.38;;;11.83;100.00
596;BME280;19946;49.306;11.350;2022-10-15T02:13:51;95689.91;;;11.80;100.00
596;BME280;19946;49.306;11.350;2022-10-15T02:17:10;95687.50;;;11.78;100.00
596;BME280;19946;49.306;11.350;2022-10-15T02:20:14;95688.59;;;11.76;100.00
596;BME280;19946;49.306;11.350;2022-10-15T02:23:24;95690.22;;;11.77;100.00
596;BME280;19946;49.306;11.350;2022-10-15T02:26:32;95684.34;;;11.75;100.00
596;BME280;19946;49.306;11.350;2022-10-15T02:29:35;95683.53;;;11.74;100.00
596;BME280;19946;49.306;11.350;2022-10-15T02:32:39;95681.09;;;11.73;100.00
596;BME280;19946;49.306;11.350;2022-10-15T02:35:42;95679.16;;;11.75;100.00
596;BME280;19946;49.306;11.350;2022-10-15T02:38:43;95674.66;;;11.77;100.00
596;BME280;19946;49.306;11.350;2022-10-15T02:41:44;95671.53;;;11.73;100.00
596;BME280;19946;49.306;11.350;2022-10-15T02:44:46;95674.66;;;11.77;100.00
596;BME280;19946;49.306;11.350;2022-10-15T02:47:47;95676.88;;;11.71;100.00
596;BME280;19946;49.306;11.350;2022-10-15T02:50:47;95662.44;;;11.69;100.00
596;BME280;19946;49.306;11.350;2022-10-15T02:53:47;95658.06;;;11.69;100.00
596;BME280;19946;49.306;11.350;2022-10-15T02:56:48;95655.97;;;11.73;100.00
596;BME280;19946;49.306;11.350;2022-10-15T02:59:50;95656.50;;;11.77;100.00
596;BME280;19946;49.306;11.350;2022-10-15T03:02:51;95659.09;;;11.77;100.00
596;BME280;19946;49.306;11.350;2022-10-15T03:05:53;95649.81;;;11.74;100.00
596;BME280;19946;49.306;11.350;2022-10-15T03:08:54;95654.88;;;11.76;100.00
596;BME280;19946;49.306;11.350;2022-10-15T03:11:56;95648.03;;;11.75;100.00
596;BME280;19946;49.306;11.350;2022-10-15T03:14:56;95653.53;;;11.71;100.00
596;BME280;19946;49.306;11.350;2022-10-15T03:17:58;95654.19;;;11.74;100.00
596;BME280;19946;49.306;11.350;2022-10-15T03:20:58;95649.53;;;11.77;100.00
596;BME280;19946;49.306;11.350;2022-10-15T03:23:59;95631.16;;;11.70;100.00
596;BME280;19946;49.306;11.350;2022-10-15T03:27:00;95643.81;;;11.74;100.00
596;BME280;19946;49.306;11.350;2022-10-15T03:30:03;95635.38;;;11.71;100.00
596;BME280;19946;49.306;11.350;2022-10-15T03:33:06;95646.28;;;11.75;100.00
596;BME280;19946;49.306;11.350;2022-10-15T03:36:08;95648.56;;;11.78;100.00
596;BME280;19946;49.306;11.350;2022-10-15T03:39:10;95648.72;;;11.77;100.00
596;BME280;19946;49.306;11.350;2022-10-15T03:42:11;95645.16;;;11.78;100.00
596;BME280;19946;49.306;11.350;2022-10-15T03:45:18;95643.88;;;11.82;100.00
596;BME280;19946;49.306;11.350;2022-10-15T03:48:21;95634.31;;;11.82;100.00
596;BME280;19946;49.306;11.350;2022-10-15T03:51:22;95631.72;;;11.82;100.00
596;BME280;19946;49.306;11.350;2022-10-15T03:54:26;95634.16;;;11.84;100.00
596;BME280;19946;49.306;11.350;2022-10-15T03:57:26;95637.41;;;11.86;100.00
596;BME280;19946;49.306;11.350;2022-10-15T04:00:33;95636.44;;;11.87;100.00
596;BME280;19946;49.306;11.350;2022-10-15T04:03:36;95643.72;;;11.91;100.00
596;BME280;19946;49.306;11.350;2022-10-15T04:06:37;95639.69;;;11.89;100.00
596;BME280;19946;49.306;11.350;2022-10-15T04:09:41;95640.97;;;11.85;100.00
596;BME280;19946;49.306;11.350;2022-10-15T04:13:02;95636.59;;;11.85;100.00
596;BME280;19946;49.306;11.350;2022-10-15T04:16:06;95643.41;;;11.86;100.00
596;BME280;19946;49.306;11.350;2022-10-15T04:19:06;95636.91;;;11.82;100.00
596;BME280;19946;49.306;11.350;2022-10-15T04:22:06;95639.03;;;11.87;100.00
596;BME280;19946;49.306;11.350;2022-10-15T04:25:15;95626.38;;;11.84;100.00
596;BME280;19946;49.306;11.350;2022-10-15T04:28:16;95635.78;;;11.85;100.00
596;BME280;19946;49.306;11.350;2022-10-15T04:31:19;95639.69;;;11.89;100.00
596;BME280;19946;49.306;11.350;2022-10-15T04:34:21;95641.13;;;11.91;100.00
596;BME280;19946;49.306;11.350;2022-10-15T04:37:22;95649.06;;;11.90;100.00
596;BME280;19946;49.306;11.350;2022-10-15T04:40:23;95645.50;;;11.91;100.00
596;BME280;19946;49.306;11.350;2022-10-15T04:43:23;95640.31;;;11.91;100.00
596;BME280;19946;49.306;11.350;2022-10-15T04:46:28;95641.13;;;11.91;100.00
596;BME280;19946;49.306;11.350;2022-10-15T04:49:30;95649.44;;;11.95;100.00
596;BME280;19946;49.306;11.350;2022-10-15T04:52:33;95647.00;;;11.93;100.00
596;BME280;19946;49.306;11.350;2022-10-15T04:55:39;95652.69;;;11.97;100.00
596;BME280;19946;49.306;11.350;2022-10-15T04:58:40;95652.66;;;11.89;100.00
596;BME280;19946;49.306;11.350;2022-10-15T05:01:41;95635.13;;;11.91;100.00
596;BME280;19946;49.306;11.350;2022-10-15T05:04:43;95645.88;;;11.96;100.00
596;BME280;19946;49.306;11.350;2022-10-15T05:07:43;95643.78;;;11.99;100.00
596;BME280;19946;49.306;11.350;2022-10-15T05:10:45;95635.66;;;11.94;100.00
596;BME280;19946;49.306;11.350;2022-10-15T05:13:46;95649.44;;;11.95;100.00
596;BME280;19946;49.306;11.350;2022-10-15T05:16:47;95652.19;;;12.01;100.00
596;BME280;19946;49.306;11.350;2022-10-15T05:19:47;95655.28;;;12.05;100.00
596;BME280;19946;49.306;11.350;2022-10-15T05:22:55;95655.44;;;12.03;100.00
596;BME280;19946;49.306;11.350;2022-10-15T05:26:00;95667.16;;;12.07;100.00
596;BME280;19946;49.306;11.350;2022-10-15T05:29:02;95667.66;;;12.11;100.00
596;BME280;19946;49.306;11.350;2022-10-15T05:32:04;95669.25;;;12.12;100.00
596;BME280;19946;49.306;11.350;2022-10-15T05:35:05;95668.78;;;12.17;100.00
596;BME280;19946;49.306;11.350;2022-10-15T05:38:24;95673.19;;;12.16;100.00
596;BME280;19946;49.306;11.350;2022-10-15T05:41:26;95674.78;;;12.17;100.00
596;BME280;19946;49.306;11.350;2022-10-15T05:44:28;95674.50;;;12.20;100.00
596;BME280;19946;49.306;11.350;2022-10-15T05:47:28;95683.56;;;12.24;100.00
596;BME280;19946;49.306;11.350;2022-10-15T05:50:45;95682.59;;;12.17;100.00
596;BME280;19946;49.306;11.350;2022-10-15T05:53:54;95692.50;;;12.22;100.00
596;BME280;19946;49.306;11.350;2022-10-15T05:56:55;95697.69;;;12.22;100.00
596;BME280;19946;49.306;11.350;2022-10-15T05:59:55;95698.84;;;12.27;100.00
596;BME280;19946;49.306;11.350;2022-10-15T06:02:56;95700.97;;;12.32;100.00
596;BME280;19946;49.306;11.350;2022-10-15T06:05:57;95699.81;;;12.34;100.00
596;BME280;19946;49.306;11.350;2022-10-15T06:08:58;95695.94;;;12.30;100.00
596;BME280;19946;49.306;11.350;2022-10-15T06:12:00;95702.59;;;12.33;100.00
596;BME280;19946;49.306;11.350;2022-10-15T06:15:01;95701.28;;;12.37;100.00
596;BME280;19946;49.306;11.350;2022-10-15T06:18:01;95707.31;;;12.46;100.00
596;BME280;19946;49.306;11.350;2022-10-15T06:21:02;95707.66;;;12.42;100.00
596;BME280;19946;49.306;11.350;2022-10-15T06:24:02;95711.06;;;12.43;100.00
596;BME280;19946;49.306;11.350;2022-10-15T06:27:04;95721.59;;;12.50;100.00
596;BME280;19946;49.306;11.350;2022-10-15T06:30:05;95711.06;;;12.51;100.00
596;BME280;19946;49.306;11.350;2022-10-15T06:33:05;95722.28;;;12.52;100.00
596;BME280;19946;49.306;11.350;2022-10-15T06:36:08;95733.94;;;12.56;100.00
596;BME280;19946;49.306;11.350;2022-10-15T06:39:08;95731.69;;;12.61;100.00
596;BME280;19946;49.306;11.350;2022-10-15T06:42:12;95735.59;;;12.65;100.00
596;BME280;19946;49.306;11.350;2022-10-15T06:45:12;95738.22;;;12.65;100.00
596;BME280;19946;49.306;11.350;2022-10-15T06:48:13;95738.88;;;12.75;100.00
596;BME280;19946;49.306;11.350;2022-10-15T06:51:13;95756.72;;;12.78;100.00
596;BME280;19946;49.306;11.350;2022-10-15T06:54:20;95746.00;;;12.73;100.00
596;BME280;19946;49.306;11.350;2022-10-15T06:57:21;95753.00;;;12.80;100.00
596;BME280;19946;49.306;11.350;2022-10-15T07:00:22;95754.13;;;12.78;100.00
596;BME280;19946;49.306;11.350;2022-10-15T07:03:23;95764.19;;;12.81;100.00
596;BME280;19946;49.306;11.350;2022-10-15T07:06:23;95757.53;;;12.78;100.00
596;BME280;19946;49.306;11.350;2022-10-15T07:09:24;95754.94;;;12.78;100.00
596;BME280;19946;49.306;11.350;2022-10-15T07:12:25;95771.53;;;12.86;100.00
596;BME280;19946;49.306;11.350;2022-10-15T07:15:26;95773.31;;;12.85;100.00
596;BME280;19946;49.306;11.350;2022-10-15T07:18:27;95772.66;;;12.99;100.00
596;BME280;19946;49.306;11.350;2022-10-15T07:21:27;95785.34;;;12.94;100.00
596;BME280;19946;49.306;11.350;2022-10-15T07:24:28;95783.41;;;12.96;100.00
596;BME280;19946;49.306;11.350;2022-10-15T07:27:28;95785.19;;;12.96;100.00
596;BME280;19946;49.306;11.350;2022-10-15T07:30:30;95791.81;;;12.98;100.00
596;BME280;19946;49.306;11.350;2022-10-15T07:33:32;95795.13;;;13.08;100.00
596;BME280;19946;49.306;11.350;2022-10-15T07:36:33;95798.19;;;13.04;100.00
596;BME280;19946;49.306;11.350;2022-10-15T07:39:34;95796.28;;;13.14;100.00
596;BME280;19946;49.306;11.350;2022-10-15T07:42:35;95801.81;;;13.19;100.00
596;BME280;19946;49.306;11.350;2022-10-15T07:45:36;95811.06;;;13.22;100.00
596;BME280;19946;49.306;11.350;2022-10-15T07:48:36;95807.47;;;13.23;100.00
596;BME280;19946;49.306;11.350;2022-10-15T07:51:37;95815.59;;;13.20;100.00
596;BME280;19946;49.306;11.350;2022-10-15T07:54:37;95814.63;;;13.21;100.00
596;BME280;19946;49.306;11.350;2022-10-15T07:57:38;95829.44;;;13.36;100.00
596;BME280;19946;49.306;11.350;2022-10-15T08:00:38;95819.53;;;13.40;100.00
596;BME280;19946;49.306;11.350;2022-10-15T08:03:38;95820.81;;;13.36;100.00
596;BME280;19946;49.306;11.350;2022-10-15T08:06:39;95831.06;;;13.45;100.00
596;BME280;19946;49.306;11.350;2022-10-15T08:09:39;95827.81;;;13.43;100.00
596;BME280;19946;49.306;11.350;2022-10-15T08:12:40;95831.22;;;13.44;100.00
596;BME280;19946;49.306;11.350;2022-10-15T08:15:41;95835.59;;;13.43;100.00
596;BME280;19946;49.306;11.350;2022-10-15T08:18:42;95834.47;;;13.46;100.00
596;BME280;19946;49.306;11.350;2022-10-15T08:21:43;95846.19;;;13.58;100.00
596;BME280;19946;49.306;11.350;2022-10-15T08:24:44;95847.31;;;13.56;100.00
596;BME280;19946;49.306;11.350;2022-10-15T08:27:44;95849.59;;;13.59;100.00
596;BME280;19946;49.306;11.350;2022-10-15T08:30:45;95844.88;;;13.54;100.00
596;BME280;19946;49.306;11.350;2022-10-15T08:33:45;95856.44;;;13.60;100.00
596;BME280;19946;49.306;11.350;2022-10-15T08:36:46;95858.22;;;13.59;100.00
596;BME280;19946;49.306;11.350;2022-10-15T08:39:46;95864.06;;;13.61;100.00
596;BME280;19946;49.306;11.350;2022-10-15T08:42:47;95869.44;;;13.68;100.00
596;BME280;19946;49.306;11.350;2022-10-15T08:45:53;95871.56;;;13.72;100.00
596;BME280;19946;49.306;11.350;2022-10-15T08:48:57;95875.75;;;13.65;100.00
596;BME280;19946;49.306;11.350;2022-10-15T08:52:19;95883.09;;;13.70;100.00
596;BME280;19946;49.306;11.350;2022-10-15T08:55:21;95882.75;;;13.65;100.00
596;BME280;19946;49.306;11.350;2022-10-15T08:58:45;95892.84;;;13.68;100.00
596;BME280;19946;49.306;11.350;2022-10-15T09:05:29;95896.41;;;13.75;100.00
596;BME280;19946;49.306;11.350;2022-10-15T09:08:47;95904.22;;;13.75;100.00
596;BME280;19946;49.306;11.350;2022-10-15T09:11:58;95903.41;;;13.66;100.00
596;BME280;19946;49.306;11.350;2022-10-15T09:15:09;95902.94;;;13.71;100.00
596;BME280;19946;49.306;11.350;2022-10-15T09:18:19;95897.41;;;13.90;100.00
596;BME280;19946;49.306;11.350;2022-10-15T09:21:23;95904.41;;;13.89;100.00
596;BME280;19946;49.306;11.350;2022-10-15T09:24:27;95910.09;;;14.01;100.00
596;BME280;19946;49.306;11.350;2022-10-15T09:27:34;95910.25;;;13.92;100.00
596;BME280;19946;49.306;11.350;2022-10-15T09:30:44;95916.59;;;13.97;100.00
596;BME280;19946;49.306;11.350;2022-10-15T09:33:52;95917.41;;;14.06;100.00
596;BME280;19946;49.306;11.350;2022-10-15T09:40:50;95920.66;;;14.08;100.00
596;BME280;19946;49.306;11.350;2022-10-15T09:43:56;95924.22;;;14.07;100.00
596;BME280;19946;49.306;11.350;2022-10-15T09:46:59;95925.53;;;14.27;100.00
596;BME280;19946;49.306;11.350;2022-10-15T09:50:00;95931.22;;;14.22;100.00
596;BME280;19946;49.306;11.350;2022-10-15T09:56:42;95943.25;;;14.32;100.00
596;BME280;19946;49.306;11.350;2022-10-15T09:59:56;95950.56;;;14.36;100.00
596;BME280;19946;49.306;11.350;2022-10-15T10:03:04;95948.94;;;14.35;100.00
596;BME280;19946;49.306;11.350;2022-10-15T10:06:08;95952.38;;;14.60;100.00
596;BME280;19946;49.306;11.350;2022-10-15T10:09:18;95954.31;;;14.50;100.00
596;BME280;19946;49.306;11.350;2022-10-15T10:12:22;95960.00;;;14.70;100.00
596;BME280;19946;49.306;11.350;2022-10-15T10:15:33;95958.22;;;14.54;100.00
596;BME280;19946;49.306;11.350;2022-10-15T10:18:35;95965.50;;;14.75;100.00
596;BME280;19946;49.306;11.350;2022-10-15T10:21:37;95964.53;;;14.76;100.00
596;BME280;19946;49.306;11.350;2022-10-15T10:24:38;95968.00;;;14.44;100.00
596;BME280;19946;49.306;11.350;2022-10-15T10:27:43;95970.25;;;14.39;100.00
596;BME280;19946;49.306;11.350;2022-10-15T10:34:00;95976.81;;;14.43;100.00
596;BME280;19946;49.306;11.350;2022-10-15T10:37:03;95979.41;;;14.59;100.00
596;BME280;19946;49.306;11.350;2022-10-15T10:40:06;95978.06;;;14.63;100.00
596;BME280;19946;49.306;11.350;2022-10-15T10:43:28;95976.41;;;14.78;100.00
596;BME280;19946;49.306;11.350;2022-10-15T10:46:29;95971.66;;;14.90;100.00
596;BME280;19946;49.306;11.350;2022-10-15T10:49:38;95976.19;;;14.96;100.00
596;BME280;19946;49.306;11.350;2022-10-15T10:52:41;95980.31;;;14.74;100.00
596;BME280;19946;49.306;11.350;2022-10-15T10:55:42;95976.56;;;14.77;100.00
596;BME280;19946;49.306;11.350;2022-10-15T10:58:47;95985.03;;;14.79;100.00
596;BME280;19946;49.306;11.350;2022-10-15T11:01:51;95980.34;;;14.66;100.00
596;BME280;19946;49.306;11.350;2022-10-15T11:04:51;95980.13;;;14.84;100.00
596;BME280;19946;49.306;11.350;2022-10-15T11:25:16;95991.22;;;15.33;100.00
596;BME280;19946;49.306;11.350;2022-10-15T11:28:33;95984.66;;;15.76;100.00
596;BME280;19946;49.306;11.350;2022-10-15T11:35:20;95985.63;;;15.44;100.00
596;BME280;19946;49.306;11.350;2022-10-15T11:38:38;95982.53;;;15.72;100.00
596;BME280;19946;49.306;11.350;2022-10-15T11:41:59;95973.13;;;16.31;100.00
596;BME280;19946;49.306;11.350;2022-10-15T11:48:31;95983.88;;;16.73;100.00
596;BME280;19946;49.306;11.350;2022-10-15T11:55:02;95982.31;;;16.27;100.00
596;BME280;19946;49.306;11.350;2022-10-15T11:58:11;95969.97;;;15.75;100.00
596;BME280;19946;49.306;11.350;2022-10-15T12:01:24;95978.06;;;16.26;100.00
596;BME280;19946;49.306;11.350;2022-10-15T12:04:39;95977.97;;;15.96;100.00
596;BME280;19946;49.306;11.350;2022-10-15T12:07:44;95977.78;;;15.75;100.00
596;BME280;19946;49.306;11.350;2022-10-15T12:10:58;95978.28;;;15.40;100.00
596;BME280;19946;49.306;11.350;2022-10-15T12:14:17;95974.31;;;15.52;100.00
596;BME280;19946;49.306;11.350;2022-10-15T12:18:00;95977.78;;;15.05;100.00
596;BME280;19946;49.306;11.350;2022-10-15T12:21:03;95974.22;;;14.98;100.00
596;BME280;19946;49.306;11.350;2022-10-15T12:24:04;95969.66;;;15.00;100.00
596;BME280;19946;49.306;11.350;2022-10-15T12:27:27;95972.78;;;14.87;100.00
596;BME280;19946;49.306;11.350;2022-10-15T12:30:35;95967.50;;;15.04;100.00
596;BME280;19946;49.306;11.350;2022-10-15T12:33:46;95955.97;;;14.98;100.00
596;BME280;19946;49.306;11.350;2022-10-15T12:36:58;95962.69;;;14.92;100.00
596;BME280;19946;49.306;11.350;2022-10-15T12:40:02;95961.16;;;15.06;100.00
596;BME280;19946;49.306;11.350;2022-10-15T12:43:18;95959.56;;;14.97;100.00
596;BME280;19946;49.306;11.350;2022-10-15T12:46:20;95957.94;;;14.96;100.00
596;BME280;19946;49.306;11.350;2022-10-15T12:52:51;95953.69;;;15.03;100.00
596;BME280;19946;49.306;11.350;2022-10-15T13:02:45;95957.88;;;15.12;100.00
596;BME280;19946;49.306;11.350;2022-10-15T13:05:50;95951.91;;;15.34;100.00
596;BME280;19946;49.306;11.350;2022-10-15T13:09:03;95952.25;;;15.62;100.00
596;BME280;19946;49.306;11.350;2022-10-15T13:12:05;95955.38;;;15.58;100.00
596;BME280;19946;49.306;11.350;2022-10-15T13:15:06;95959.16;;;15.47;100.00
596;BME280;19946;49.306;11.350;2022-10-15T13:18:12;95951.53;;;15.46;100.00
596;BME280;19946;49.306;11.350;2022-10-15T13:21:12;95953.25;;;15.61;100.00
596;BME280;19946;49.306;11.350;2022-10-15T13:24:16;95951.53;;;15.77;100.00
596;BME280;19946;49.306;11.350;2022-10-15T13:27:34;95952.44;;;16.06;100.00
596;BME280;19946;49.306;11.350;2022-10-15T13:30:47;95940.16;;;16.44;100.00
596;BME280;19946;49.306;11.350;2022-10-15T13:33:50;95955.22;;;15.82;100.00
596;BME280;19946;49.306;11.350;2022-10-15T13:36:52;95955.56;;;15.56;100.00
596;BME280;19946;49.306;11.350;2022-10-15T13:39:54;95954.81;;;15.70;100.00
596;BME280;19946;49.306;11.350;2022-10-15T13:42:59;95959.34;;;15.77;100.00
596;BME280;19946;49.306;11.350;2022-10-15T13:46:00;95957.91;;;15.74;100.00
596;BME280;19946;49.306;11.350;2022-10-15T13:49:03;95959.22;;;15.93;100.00
596;BME280;19946;49.306;11.350;2022-10-15T13:52:08;95962.88;;;15.84;100.00
596;BME280;19946;49.306;11.350;2022-10-15T13:55:28;95974.44;;;15.58;100.00
596;BME280;19946;49.306;11.350;2022-10-15T13:58:33;95970.69;;;15.61;100.00
596;BME280;19946;49.306;11.350;2022-10-15T14:01:33;95961.72;;;15.86;100.00
596;BME280;19946;49.306;11.350;2022-10-15T14:04:36;95952.66;;;16.20;100.00
596;BME280;19946;49.306;11.350;2022-10-15T14:07:36;95947.22;;;16.59;100.00
596;BME280;19946;49.306;11.350;2022-10-15T14:10:37;95947.44;;;16.34;100.00
596;BME280;19946;49.306;11.350;2022-10-15T14:13:44;95946.06;;;16.61;100.00
596;BME280;19946;49.306;11.350;2022-10-15T14:16:46;95948.75;;;16.53;100.00
596;BME280;19946;49.306;11.350;2022-10-15T14:19:50;95958.44;;;16.30;100.00
596;BME280;19946;49.306;11.350;2022-10-15T14:22:51;95961.31;;;16.20;100.00
596;BME280;19946;49.306;11.350;2022-10-15T14:26:02;95970.00;;;16.13;100.00
596;BME280;19946;49.306;11.350;2022-10-15T14:29:04;95972.84;;;16.26;100.00
596;BME280;19946;49.306;11.350;2022-10-15T14:32:19;95977.00;;;16.35;100.00
596;BME280;19946;49.306;11.350;2022-10-15T14:35:22;95982.84;;;16.22;100.00
596;BME280;19946;49.306;11.350;2022-10-15T14:38:24;95973.59;;;16.12;100.00
596;BME280;19946;49.306;11.350;2022-10-15T14:41:29;95963.81;;;15.91;100.00
596;BME280;19946;49.306;11.350;2022-10-15T14:45:09;95979.44;;;15.99;100.00
596;BME280;19946;49.306;11.350;2022-10-15T14:48:17;95979.59;;;15.75;100.00
596;BME280;19946;49.306;11.350;2022-10-15T14:51:24;95988.63;;;15.64;100.00
596;BME280;19946;49.306;11.350;2022-10-15T14:54:38;95972.69;;;15.51;100.00
596;BME280;19946;49.306;11.350;2022-10-15T14:57:42;95980.69;;;15.49;100.00
596;BME280;19946;49.306;11.350;2022-10-15T15:00:54;95981.66;;;15.56;100.00
596;BME280;19946;49.306;11.350;2022-10-15T15:03:55;95983.88;;;15.67;100.00
596;BME280;19946;49.306;11.350;2022-10-15T15:06:56;95984.28;;;15.79;100.00
596;BME280;19946;49.306;11.350;2022-10-15T15:09:56;95976.28;;;15.81;100.00
596;BME280;19946;49.306;11.350;2022-10-15T15:12:57;95981.88;;;15.69;100.00
596;BME280;19946;49.306;11.350;2022-10-15T15:15:57;95989.22;;;15.74;100.00
596;BME280;19946;49.306;11.350;2022-10-15T15:18:58;95976.66;;;15.78;100.00
596;BME280;19946;49.306;11.350;2022-10-15T15:21:59;95984.00;;;15.74;100.00
596;BME280;19946;49.306;11.350;2022-10-15T15:25:02;95985.38;;;15.62;100.00
596;BME280;19946;49.306;11.350;2022-10-15T15:28:11;95984.59;;;15.53;100.00
596;BME280;19946;49.306;11.350;2022-10-15T15:31:16;95983.09;;;15.59;100.00
596;BME280;19946;49.306;11.350;2022-10-15T15:34:16;95986.88;;;15.56;100.00
596;BME280;19946;49.306;11.350;2022-10-15T15:37:20;95988.00;;;15.54;100.00
596;BME280;19946;49.306;11.350;2022-10-15T15:40:20;95975.63;;;15.48;100.00
596;BME280;19946;49.306;11.350;2022-10-15T15:43:21;95978.22;;;15.48;100.00
596;BME280;19946;49.306;11.350;2022-10-15T15:46:21;95980.56;;;15.43;100.00
596;BME280;19946;49.306;11.350;2022-10-15T15:49:22;95979.59;;;15.44;100.00
596;BME280;19946;49.306;11.350;2022-10-15T15:52:22;95978.72;;;15.51;100.00
596;BME280;19946;49.306;11.350;2022-10-15T15:55:23;95996.25;;;15.34;100.00
596;BME280;19946;49.306;11.350;2022-10-15T15:58:23;95992.03;;;15.33;100.00
596;BME280;19946;49.306;11.350;2022-10-15T16:01:24;95995.72;;;15.39;100.00
596;BME280;19946;49.306;11.350;2022-10-15T16:04:24;96004.41;;;15.31;100.00
596;BME280;19946;49.306;11.350;2022-10-15T16:07:25;95995.28;;;15.36;100.00
596;BME280;19946;49.306;11.350;2022-10-15T16:10:25;95991.22;;;15.33;100.00
596;BME280;19946;49.306;11.350;2022-10-15T16:13:25;96000.19;;;15.30;100.00
596;BME280;19946;49.306;11.350;2022-10-15T16:16:26;96005.44;;;15.22;100.00
596;BME280;19946;49.306;11.350;2022-10-15T16:19:27;95997.63;;;15.22;100.00
596;BME280;19946;49.306;11.350;2022-10-15T16:22:28;96001.53;;;15.18;100.00
596;BME280;19946;49.306;11.350;2022-10-15T16:25:28;96014.72;;;15.17;100.00
596;BME280;19946;49.306;11.350;2022-10-15T16:28:28;96012.78;;;15.19;100.00
596;BME280;19946;49.306;11.350;2022-10-15T16:31:29;96008.25;;;15.13;100.00
596;BME280;19946;49.306;11.350;2022-10-15T16:34:31;96030.09;;;15.12;100.00
596;BME280;19946;49.306;11.350;2022-10-15T16:37:32;96027.31;;;15.13;100.00
596;BME280;19946;49.306;11.350;2022-10-15T16:40:32;96027.00;;;15.08;100.00
596;BME280;19946;49.306;11.350;2022-10-15T16:43:34;96043.63;;;15.07;100.00
596;BME280;19946;49.306;11.350;2022-10-15T16:46:35;96053.72;;;15.10;100.00
596;BME280;19946;49.306;11.350;2022-10-15T16:49:35;96058.44;;;15.07;100.00
596;BME280;19946;49.306;11.350;2022-10-15T16:52:36;96070.22;;;15.03;100.00
596;BME280;19946;49.306;11.350;2022-10-15T16:55:36;96064.81;;;14.96;100.00
596;BME280;19946;49.306;11.350;2022-10-15T16:58:37;96065.66;;;14.96;100.00
596;BME280;19946;49.306;11.350;2022-10-15T17:01:37;96059.44;;;14.97;100.00
596;BME280;19946;49.306;11.350;2022-10-15T17:04:37;96059.63;;;14.96;100.00
596;BME280;19946;49.306;11.350;2022-10-15T17:07:39;96062.53;;;14.93;100.00
596;BME280;19946;49.306;11.350;2022-10-15T17:10:41;96066.47;;;14.89;100.00
596;BME280;19946;49.306;11.350;2022-10-15T17:13:41;96069.72;;;14.99;100.00
596;BME280;19946;49.306;11.350;2022-10-15T17:16:47;96072.19;;;14.84;100.00
596;BME280;19946;49.306;11.350;2022-10-15T17:19:47;96070.09;;;14.80;100.00
596;BME280;19946;49.306;11.350;2022-10-15T17:22:48;96079.19;;;14.84;100.00
596;BME280;19946;49.306;11.350;2022-10-15T17:25:48;96076.94;;;14.81;100.00
596;BME280;19946;49.306;11.350;2022-10-15T17:28:49;96073.31;;;14.82;100.00